sensor_id;sensor_type;location;lat;lon;timestamp;P1;durP1;ratioP1;P2;durP2;ratioP2
59474;SDS011;45288;51.136;16.928;2022-07-29T00:02:11;6.00;;;2.40;;
59474;SDS011;45288;51.136;16.928;2022-07-29T00:04:36;7.00;;;2.42;;
59474;SDS011;45288;51.136;16.928;2022-07-29T00:07:03;6.13;;;2.40;;
59474;SDS011;45288;51.136;16.928;2022-07-29T00:09:29;3.53;;;2.37;;
59474;SDS011;45288;51.136;16.928;2022-07-29T00:11:55;6.10;;;2.60;;
59474;SDS011;45288;51.136;16.928;2022-07-29T00:14:22;6.13;;;2.20;;
59474;SDS011;45288;51.136;16.928;2022-07-29T00:16:47;4.00;;;2.43;;
59474;SDS011;45288;51.136;16.928;2022-07-29T00:19:13;4.90;;;2.60;;
59474;SDS011;45288;51.136;16.928;2022-07-29T00:21:39;5.90;;;2.60;;
59474;SDS011;45288;51.136;16.928;2022-07-29T00:24:04;6.10;;;2.43;;
59474;SDS011;45288;51.136;16.928;2022-07-29T00:26:31;5.78;;;2.42;;
59474;SDS011;45288;51.136;16.928;2022-07-29T00:29:01;4.95;;;2.33;;
59474;SDS011;45288;51.136;16.928;2022-07-29T00:31:27;3.70;;;2.60;;
59474;SDS011;45288;51.136;16.928;2022-07-29T00:33:53;5.13;;;2.30;;
59474;SDS011;45288;51.136;16.928;2022-07-29T00:36:19;3.70;;;2.43;;
59474;SDS011;45288;51.136;16.928;2022-07-29T00:38:49;5.05;;;2.50;;
59474;SDS011;45288;51.136;16.928;2022-07-29T00:41:15;4.30;;;2.30;;
59474;SDS011;45288;51.136;16.928;2022-07-29T00:43:41;4.55;;;2.50;;
59474;SDS011;45288;51.136;16.928;2022-07-29T00:46:07;5.13;;;2.60;;
59474;SDS011;45288;51.136;16.928;2022-07-29T00:48:33;3.78;;;2.28;;
59474;SDS011;45288;51.136;16.928;2022-07-29T00:50:59;4.07;;;2.47;;
59474;SDS011;45288;51.136;16.928;2022-07-29T00:53:25;5.28;;;2.78;;
59474;SDS011;45288;51.136;16.928;2022-07-29T00:55:51;4.18;;;2.40;;
59474;SDS011;45288;51.136;16.928;2022-07-29T00:58:18;4.05;;;2.63;;
59474;SDS011;45288;51.136;16.928;2022-07-29T01:00:43;4.65;;;2.80;;
59474;SDS011;45288;51.136;16.928;2022-07-29T01:03:09;4.25;;;2.47;;
59474;SDS011;45288;51.136;16.928;2022-07-29T01:05:35;5.23;;;2.60;;
59474;SDS011;45288;51.136;16.928;2022-07-29T01:08:01;5.45;;;2.50;;
59474;SDS011;45288;51.136;16.928;2022-07-29T01:10:27;3.95;;;2.50;;
59474;SDS011;45288;51.136;16.928;2022-07-29T01:12:53;4.53;;;2.70;;
59474;SDS011;45288;51.136;16.928;2022-07-29T01:15:20;3.92;;;2.53;;
59474;SDS011;45288;51.136;16.928;2022-07-29T01:23:11;5.37;;;2.67;;
59474;SDS011;45288;51.136;16.928;2022-07-29T01:30:47;5.17;;;2.83;;
59474;SDS011;45288;51.136;16.928;2022-07-29T01:33:15;7.85;;;2.80;;
59474;SDS011;45288;51.136;16.928;2022-07-29T01:36:04;7.07;;;2.60;;
59474;SDS011;45288;51.136;16.928;2022-07-29T01:38:32;3.78;;;2.55;;
59474;SDS011;45288;51.136;16.928;2022-07-29T01:41:05;4.45;;;2.58;;
59474;SDS011;45288;51.136;16.928;2022-07-29T01:43:36;5.40;;;2.80;;
59474;SDS011;45288;51.136;16.928;2022-07-29T01:46:09;4.57;;;2.60;;
59474;SDS011;45288;51.136;16.928;2022-07-29T01:48:39;6.63;;;2.97;;
59474;SDS011;45288;51.136;16.928;2022-07-29T01:51:07;6.28;;;2.78;;
59474;SDS011;45288;51.136;16.928;2022-07-29T01:53:38;6.43;;;2.70;;
59474;SDS011;45288;51.136;16.928;2022-07-29T01:56:08;4.27;;;2.90;;
59474;SDS011;45288;51.136;16.928;2022-07-29T01:58:34;6.15;;;3.00;;
59474;SDS011;45288;51.136;16.928;2022-07-29T02:01:01;7.13;;;2.85;;
59474;SDS011;45288;51.136;16.928;2022-07-29T02:03:28;4.90;;;2.95;;
59474;SDS011;45288;51.136;16.928;2022-07-29T02:05:54;3.70;;;2.90;;
59474;SDS011;45288;51.136;16.928;2022-07-29T02:08:21;4.18;;;2.50;;
59474;SDS011;45288;51.136;16.928;2022-07-29T02:10:47;4.55;;;2.90;;
59474;SDS011;45288;51.136;16.928;2022-07-29T02:13:13;6.00;;;3.00;;
59474;SDS011;45288;51.136;16.928;2022-07-29T02:15:40;5.47;;;2.80;;
59474;SDS011;45288;51.136;16.928;2022-07-29T02:18:08;5.22;;;2.70;;
59474;SDS011;45288;51.136;16.928;2022-07-29T02:20:34;6.45;;;3.13;;
59474;SDS011;45288;51.136;16.928;2022-07-29T02:23:01;5.57;;;3.20;;
59474;SDS011;45288;51.136;16.928;2022-07-29T02:25:27;5.47;;;3.20;;
59474;SDS011;45288;51.136;16.928;2022-07-29T02:27:54;7.03;;;3.00;;
59474;SDS011;45288;51.136;16.928;2022-07-29T02:30:20;5.65;;;3.20;;
59474;SDS011;45288;51.136;16.928;2022-07-29T02:32:47;6.38;;;3.20;;
59474;SDS011;45288;51.136;16.928;2022-07-29T02:35:14;5.45;;;2.97;;
59474;SDS011;45288;51.136;16.928;2022-07-29T02:37:40;6.10;;;2.90;;
59474;SDS011;45288;51.136;16.928;2022-07-29T02:40:08;5.55;;;3.67;;
59474;SDS011;45288;51.136;16.928;2022-07-29T02:42:34;6.65;;;3.00;;
59474;SDS011;45288;51.136;16.928;2022-07-29T02:45:01;5.25;;;2.85;;
59474;SDS011;45288;51.136;16.928;2022-07-29T02:50:12;6.32;;;3.03;;
59474;SDS011;45288;51.136;16.928;2022-07-29T02:52:40;7.07;;;2.85;;
59474;SDS011;45288;51.136;16.928;2022-07-29T02:55:17;7.40;;;3.20;;
59474;SDS011;45288;51.136;16.928;2022-07-29T02:57:47;5.65;;;3.30;;
59474;SDS011;45288;51.136;16.928;2022-07-29T03:00:15;6.38;;;3.28;;
59474;SDS011;45288;51.136;16.928;2022-07-29T03:02:42;6.80;;;3.10;;
59474;SDS011;45288;51.136;16.928;2022-07-29T03:05:09;5.75;;;2.90;;
59474;SDS011;45288;51.136;16.928;2022-07-29T03:07:36;5.28;;;2.88;;
59474;SDS011;45288;51.136;16.928;2022-07-29T03:10:02;5.88;;;3.40;;
59474;SDS011;45288;51.136;16.928;2022-07-29T03:12:28;6.50;;;3.33;;
59474;SDS011;45288;51.136;16.928;2022-07-29T03:14:54;7.88;;;3.15;;
59474;SDS011;45288;51.136;16.928;2022-07-29T03:17:20;5.45;;;3.17;;
59474;SDS011;45288;51.136;16.928;2022-07-29T03:19:46;6.20;;;3.30;;
59474;SDS011;45288;51.136;16.928;2022-07-29T03:22:12;6.82;;;3.13;;
59474;SDS011;45288;51.136;16.928;2022-07-29T03:24:39;5.05;;;3.20;;
59474;SDS011;45288;51.136;16.928;2022-07-29T03:27:04;6.47;;;3.50;;
59474;SDS011;45288;51.136;16.928;2022-07-29T03:29:30;4.88;;;3.30;;
59474;SDS011;45288;51.136;16.928;2022-07-29T03:31:57;6.22;;;3.28;;
59474;SDS011;45288;51.136;16.928;2022-07-29T03:34:23;6.17;;;3.23;;
59474;SDS011;45288;51.136;16.928;2022-07-29T03:36:48;5.40;;;3.60;;
59474;SDS011;45288;51.136;16.928;2022-07-29T03:39:17;6.03;;;3.50;;
59474;SDS011;45288;51.136;16.928;2022-07-29T03:41:44;7.45;;;3.25;;
59474;SDS011;45288;51.136;16.928;2022-07-29T03:44:11;7.22;;;3.50;;
59474;SDS011;45288;51.136;16.928;2022-07-29T03:46:37;5.78;;;3.28;;
59474;SDS011;45288;51.136;16.928;2022-07-29T03:49:04;6.72;;;3.50;;
59474;SDS011;45288;51.136;16.928;2022-07-29T03:51:30;9.23;;;3.60;;
59474;SDS011;45288;51.136;16.928;2022-07-29T03:53:56;7.97;;;3.78;;
59474;SDS011;45288;51.136;16.928;2022-07-29T03:56:22;5.70;;;3.30;;
59474;SDS011;45288;51.136;16.928;2022-07-29T03:58:49;6.47;;;3.30;;
59474;SDS011;45288;51.136;16.928;2022-07-29T04:01:17;7.63;;;3.45;;
59474;SDS011;45288;51.136;16.928;2022-07-29T04:03:43;7.25;;;3.30;;
59474;SDS011;45288;51.136;16.928;2022-07-29T04:06:10;6.85;;;3.28;;
59474;SDS011;45288;51.136;16.928;2022-07-29T04:08:36;8.33;;;3.33;;
59474;SDS011;45288;51.136;16.928;2022-07-29T04:11:02;5.85;;;3.40;;
59474;SDS011;45288;51.136;16.928;2022-07-29T04:13:28;7.60;;;4.03;;
59474;SDS011;45288;51.136;16.928;2022-07-29T04:15:54;8.48;;;3.67;;
59474;SDS011;45288;51.136;16.928;2022-07-29T04:18:20;6.97;;;4.18;;
59474;SDS011;45288;51.136;16.928;2022-07-29T04:20:46;8.07;;;4.07;;
59474;SDS011;45288;51.136;16.928;2022-07-29T04:23:11;7.20;;;3.57;;
59474;SDS011;45288;51.136;16.928;2022-07-29T04:25:38;5.20;;;3.63;;
59474;SDS011;45288;51.136;16.928;2022-07-29T04:28:04;8.15;;;3.60;;
59474;SDS011;45288;51.136;16.928;2022-07-29T04:30:31;6.53;;;3.25;;
59474;SDS011;45288;51.136;16.928;2022-07-29T04:32:58;6.80;;;3.38;;
59474;SDS011;45288;51.136;16.928;2022-07-29T04:35:24;5.40;;;3.50;;
59474;SDS011;45288;51.136;16.928;2022-07-29T04:37:49;7.13;;;3.28;;
59474;SDS011;45288;51.136;16.928;2022-07-29T04:40:15;7.40;;;3.38;;
59474;SDS011;45288;51.136;16.928;2022-07-29T04:42:41;6.40;;;3.60;;
59474;SDS011;45288;51.136;16.928;2022-07-29T04:45:06;6.28;;;3.13;;
59474;SDS011;45288;51.136;16.928;2022-07-29T04:47:32;5.22;;;3.25;;
59474;SDS011;45288;51.136;16.928;2022-07-29T04:49:58;7.20;;;3.38;;
59474;SDS011;45288;51.136;16.928;2022-07-29T04:52:24;5.38;;;3.30;;
59474;SDS011;45288;51.136;16.928;2022-07-29T04:54:50;7.37;;;3.60;;
59474;SDS011;45288;51.136;16.928;2022-07-29T04:57:16;6.68;;;3.55;;
59474;SDS011;45288;51.136;16.928;2022-07-29T04:59:41;7.18;;;3.33;;
59474;SDS011;45288;51.136;16.928;2022-07-29T05:02:07;7.27;;;3.53;;
59474;SDS011;45288;51.136;16.928;2022-07-29T05:04:33;8.38;;;3.10;;
59474;SDS011;45288;51.136;16.928;2022-07-29T05:06:58;12.50;;;3.50;;
59474;SDS011;45288;51.136;16.928;2022-07-29T05:09:24;9.52;;;3.63;;
59474;SDS011;45288;51.136;16.928;2022-07-29T05:11:50;8.17;;;3.27;;
59474;SDS011;45288;51.136;16.928;2022-07-29T05:14:16;5.95;;;3.20;;
59474;SDS011;45288;51.136;16.928;2022-07-29T05:16:41;6.77;;;3.17;;
59474;SDS011;45288;51.136;16.928;2022-07-29T05:19:08;6.75;;;3.10;;
59474;SDS011;45288;51.136;16.928;2022-07-29T05:21:34;8.67;;;3.00;;
59474;SDS011;45288;51.136;16.928;2022-07-29T05:24:00;7.43;;;2.80;;
59474;SDS011;45288;51.136;16.928;2022-07-29T05:26:26;9.07;;;3.22;;
59474;SDS011;45288;51.136;16.928;2022-07-29T05:28:51;6.90;;;3.30;;
59474;SDS011;45288;51.136;16.928;2022-07-29T05:31:17;10.02;;;3.35;;
59474;SDS011;45288;51.136;16.928;2022-07-29T05:33:43;6.20;;;2.93;;
59474;SDS011;45288;51.136;16.928;2022-07-29T05:36:09;7.22;;;2.97;;
59474;SDS011;45288;51.136;16.928;2022-07-29T05:38:35;7.93;;;3.13;;
59474;SDS011;45288;51.136;16.928;2022-07-29T05:41:01;8.88;;;3.08;;
59474;SDS011;45288;51.136;16.928;2022-07-29T05:43:27;7.15;;;3.08;;
59474;SDS011;45288;51.136;16.928;2022-07-29T05:45:53;5.35;;;3.38;;
59474;SDS011;45288;51.136;16.928;2022-07-29T05:48:18;6.40;;;3.00;;
59474;SDS011;45288;51.136;16.928;2022-07-29T05:50:44;6.65;;;2.90;;
59474;SDS011;45288;51.136;16.928;2022-07-29T05:53:13;5.97;;;2.90;;
59474;SDS011;45288;51.136;16.928;2022-07-29T05:55:39;5.13;;;2.80;;
59474;SDS011;45288;51.136;16.928;2022-07-29T05:58:04;5.90;;;3.20;;
59474;SDS011;45288;51.136;16.928;2022-07-29T06:00:30;5.93;;;2.90;;
59474;SDS011;45288;51.136;16.928;2022-07-29T06:02:56;6.88;;;2.90;;
59474;SDS011;45288;51.136;16.928;2022-07-29T06:05:22;6.07;;;3.08;;
59474;SDS011;45288;51.136;16.928;2022-07-29T06:07:48;5.90;;;3.08;;
59474;SDS011;45288;51.136;16.928;2022-07-29T06:10:13;8.67;;;3.10;;
59474;SDS011;45288;51.136;16.928;2022-07-29T06:12:42;8.02;;;3.00;;
59474;SDS011;45288;51.136;16.928;2022-07-29T06:15:08;10.25;;;3.40;;
59474;SDS011;45288;51.136;16.928;2022-07-29T06:17:33;9.50;;;3.10;;
59474;SDS011;45288;51.136;16.928;2022-07-29T06:19:59;6.22;;;2.95;;
59474;SDS011;45288;51.136;16.928;2022-07-29T06:22:25;8.40;;;3.27;;
59474;SDS011;45288;51.136;16.928;2022-07-29T06:24:51;5.65;;;3.13;;
59474;SDS011;45288;51.136;16.928;2022-07-29T06:27:16;9.57;;;3.03;;
59474;SDS011;45288;51.136;16.928;2022-07-29T06:29:42;7.03;;;3.10;;
59474;SDS011;45288;51.136;16.928;2022-07-29T06:32:08;3.90;;;2.87;;
59474;SDS011;45288;51.136;16.928;2022-07-29T06:34:35;5.78;;;3.08;;
59474;SDS011;45288;51.136;16.928;2022-07-29T06:37:05;5.25;;;3.10;;
59474;SDS011;45288;51.136;16.928;2022-07-29T06:39:30;7.65;;;2.80;;
59474;SDS011;45288;51.136;16.928;2022-07-29T06:41:56;5.38;;;2.85;;
59474;SDS011;45288;51.136;16.928;2022-07-29T06:44:23;6.00;;;2.95;;
59474;SDS011;45288;51.136;16.928;2022-07-29T06:46:49;7.60;;;3.17;;
59474;SDS011;45288;51.136;16.928;2022-07-29T06:49:17;5.82;;;2.90;;
59474;SDS011;45288;51.136;16.928;2022-07-29T06:51:42;5.43;;;2.80;;
59474;SDS011;45288;51.136;16.928;2022-07-29T06:54:08;6.67;;;3.20;;
59474;SDS011;45288;51.136;16.928;2022-07-29T06:56:34;8.90;;;3.08;;
59474;SDS011;45288;51.136;16.928;2022-07-29T06:59:03;8.27;;;2.95;;
59474;SDS011;45288;51.136;16.928;2022-07-29T07:01:29;8.18;;;3.03;;
59474;SDS011;45288;51.136;16.928;2022-07-29T07:03:54;7.13;;;2.80;;
59474;SDS011;45288;51.136;16.928;2022-07-29T07:06:20;7.07;;;3.30;;
59474;SDS011;45288;51.136;16.928;2022-07-29T07:08:46;7.33;;;2.70;;
59474;SDS011;45288;51.136;16.928;2022-07-29T07:11:11;5.63;;;2.67;;
59474;SDS011;45288;51.136;16.928;2022-07-29T07:13:37;10.13;;;3.13;;
59474;SDS011;45288;51.136;16.928;2022-07-29T07:16:03;5.97;;;2.72;;
59474;SDS011;45288;51.136;16.928;2022-07-29T07:18:29;4.97;;;3.00;;
59474;SDS011;45288;51.136;16.928;2022-07-29T07:20:55;7.45;;;2.70;;
59474;SDS011;45288;51.136;16.928;2022-07-29T07:23:21;5.30;;;2.63;;
59474;SDS011;45288;51.136;16.928;2022-07-29T07:25:46;6.15;;;2.67;;
59474;SDS011;45288;51.136;16.928;2022-07-29T07:28:12;5.80;;;2.90;;
59474;SDS011;45288;51.136;16.928;2022-07-29T07:30:38;6.38;;;2.97;;
59474;SDS011;45288;51.136;16.928;2022-07-29T07:33:04;4.72;;;2.47;;
59474;SDS011;45288;51.136;16.928;2022-07-29T07:35:30;6.07;;;3.08;;
59474;SDS011;45288;51.136;16.928;2022-07-29T07:37:56;4.87;;;2.60;;
59474;SDS011;45288;51.136;16.928;2022-07-29T07:40:21;8.20;;;2.72;;
59474;SDS011;45288;51.136;16.928;2022-07-29T07:42:47;6.17;;;2.50;;
59474;SDS011;45288;51.136;16.928;2022-07-29T07:45:13;5.10;;;2.70;;
59474;SDS011;45288;51.136;16.928;2022-07-29T07:47:39;3.80;;;2.20;;
59474;SDS011;45288;51.136;16.928;2022-07-29T07:50:05;6.70;;;2.80;;
59474;SDS011;45288;51.136;16.928;2022-07-29T07:52:32;7.50;;;2.70;;
59474;SDS011;45288;51.136;16.928;2022-07-29T07:54:58;6.13;;;2.63;;
59474;SDS011;45288;51.136;16.928;2022-07-29T07:57:24;4.43;;;2.50;;
59474;SDS011;45288;51.136;16.928;2022-07-29T07:59:49;4.57;;;2.40;;
59474;SDS011;45288;51.136;16.928;2022-07-29T08:02:15;4.30;;;2.50;;
59474;SDS011;45288;51.136;16.928;2022-07-29T08:04:40;3.92;;;2.33;;
59474;SDS011;45288;51.136;16.928;2022-07-29T08:07:07;5.15;;;2.50;;
59474;SDS011;45288;51.136;16.928;2022-07-29T08:09:34;4.68;;;2.60;;
59474;SDS011;45288;51.136;16.928;2022-07-29T08:12:00;6.57;;;2.72;;
59474;SDS011;45288;51.136;16.928;2022-07-29T08:14:32;5.30;;;2.40;;
59474;SDS011;45288;51.136;16.928;2022-07-29T08:16:58;5.57;;;2.30;;
59474;SDS011;45288;51.136;16.928;2022-07-29T08:19:23;4.43;;;2.30;;
59474;SDS011;45288;51.136;16.928;2022-07-29T08:21:49;3.40;;;2.28;;
59474;SDS011;45288;51.136;16.928;2022-07-29T08:24:17;5.88;;;2.70;;
59474;SDS011;45288;51.136;16.928;2022-07-29T08:27:02;3.60;;;2.40;;
59474;SDS011;45288;51.136;16.928;2022-07-29T08:29:27;4.43;;;2.42;;
59474;SDS011;45288;51.136;16.928;2022-07-29T08:31:53;4.63;;;2.40;;
59474;SDS011;45288;51.136;16.928;2022-07-29T08:34:18;3.37;;;2.57;;
59474;SDS011;45288;51.136;16.928;2022-07-29T08:36:44;4.03;;;2.42;;
59474;SDS011;45288;51.136;16.928;2022-07-29T08:39:10;6.38;;;2.45;;
59474;SDS011;45288;51.136;16.928;2022-07-29T08:41:36;5.32;;;2.58;;
59474;SDS011;45288;51.136;16.928;2022-07-29T08:44:01;4.10;;;2.70;;
59474;SDS011;45288;51.136;16.928;2022-07-29T08:46:27;4.83;;;2.70;;
59474;SDS011;45288;51.136;16.928;2022-07-29T08:48:53;4.47;;;2.42;;
59474;SDS011;45288;51.136;16.928;2022-07-29T08:51:20;3.60;;;2.42;;
59474;SDS011;45288;51.136;16.928;2022-07-29T08:53:47;6.57;;;2.57;;
59474;SDS011;45288;51.136;16.928;2022-07-29T08:56:14;3.05;;;2.45;;
59474;SDS011;45288;51.136;16.928;2022-07-29T08:58:42;6.47;;;2.50;;
59474;SDS011;45288;51.136;16.928;2022-07-29T09:01:08;3.90;;;2.50;;
59474;SDS011;45288;51.136;16.928;2022-07-29T09:03:34;3.90;;;2.47;;
59474;SDS011;45288;51.136;16.928;2022-07-29T09:06:01;3.20;;;2.40;;
59474;SDS011;45288;51.136;16.928;2022-07-29T09:08:27;5.90;;;2.60;;
59474;SDS011;45288;51.136;16.928;2022-07-29T09:10:53;7.30;;;2.50;;
59474;SDS011;45288;51.136;16.928;2022-07-29T09:13:21;3.20;;;2.45;;
59474;SDS011;45288;51.136;16.928;2022-07-29T09:15:47;5.80;;;2.63;;
59474;SDS011;45288;51.136;16.928;2022-07-29T09:18:29;6.75;;;2.80;;
59474;SDS011;45288;51.136;16.928;2022-07-29T09:20:58;7.47;;;2.60;;
59474;SDS011;45288;51.136;16.928;2022-07-29T09:26:30;5.10;;;2.28;;
59474;SDS011;45288;51.136;16.928;2022-07-29T09:28:56;5.72;;;2.60;;
59474;SDS011;45288;51.136;16.928;2022-07-29T09:31:44;4.17;;;2.60;;
59474;SDS011;45288;51.136;16.928;2022-07-29T09:34:08;4.13;;;2.40;;
59474;SDS011;45288;51.136;16.928;2022-07-29T09:36:42;5.35;;;2.47;;
59474;SDS011;45288;51.136;16.928;2022-07-29T09:39:07;4.82;;;2.40;;
59474;SDS011;45288;51.136;16.928;2022-07-29T09:41:55;3.80;;;2.50;;
59474;SDS011;45288;51.136;16.928;2022-07-29T09:44:20;5.25;;;2.60;;
59474;SDS011;45288;51.136;16.928;2022-07-29T09:47:19;3.30;;;2.47;;
59474;SDS011;45288;51.136;16.928;2022-07-29T09:49:54;4.50;;;2.40;;
59474;SDS011;45288;51.136;16.928;2022-07-29T09:52:23;3.80;;;2.33;;
59474;SDS011;45288;51.136;16.928;2022-07-29T09:54:49;5.68;;;2.40;;
59474;SDS011;45288;51.136;16.928;2022-07-29T09:57:48;3.67;;;2.50;;
59474;SDS011;45288;51.136;16.928;2022-07-29T10:00:14;4.65;;;2.70;;
59474;SDS011;45288;51.136;16.928;2022-07-29T10:02:42;4.93;;;2.50;;
59474;SDS011;45288;51.136;16.928;2022-07-29T10:05:22;6.43;;;2.57;;
59474;SDS011;45288;51.136;16.928;2022-07-29T10:07:57;4.10;;;2.72;;
59474;SDS011;45288;51.136;16.928;2022-07-29T10:10:30;6.07;;;2.40;;
59474;SDS011;45288;51.136;16.928;2022-07-29T10:15:22;4.17;;;2.40;;
59474;SDS011;45288;51.136;16.928;2022-07-29T10:17:49;4.45;;;2.30;;
59474;SDS011;45288;51.136;16.928;2022-07-29T10:20:15;6.80;;;3.00;;
59474;SDS011;45288;51.136;16.928;2022-07-29T10:22:41;6.50;;;2.50;;
59474;SDS011;45288;51.136;16.928;2022-07-29T10:25:07;4.78;;;2.88;;
59474;SDS011;45288;51.136;16.928;2022-07-29T10:27:34;4.70;;;2.40;;
59474;SDS011;45288;51.136;16.928;2022-07-29T10:29:59;4.95;;;2.55;;
59474;SDS011;45288;51.136;16.928;2022-07-29T10:37:26;3.55;;;2.40;;
59474;SDS011;45288;51.136;16.928;2022-07-29T10:39:56;4.30;;;2.50;;
59474;SDS011;45288;51.136;16.928;2022-07-29T10:42:27;6.00;;;2.87;;
59474;SDS011;45288;51.136;16.928;2022-07-29T10:44:54;3.57;;;2.87;;
59474;SDS011;45288;51.136;16.928;2022-07-29T10:47:23;4.32;;;2.70;;
59474;SDS011;45288;51.136;16.928;2022-07-29T10:49:59;5.00;;;2.67;;
59474;SDS011;45288;51.136;16.928;2022-07-29T10:53:11;6.25;;;3.10;;
59474;SDS011;45288;51.136;16.928;2022-07-29T10:55:30;4.97;;;3.25;;
59474;SDS011;45288;51.136;16.928;2022-07-29T11:00:36;5.63;;;2.67;;
59474;SDS011;45288;51.136;16.928;2022-07-29T11:03:02;3.80;;;2.63;;
59474;SDS011;45288;51.136;16.928;2022-07-29T11:05:28;3.90;;;2.60;;
59474;SDS011;45288;51.136;16.928;2022-07-29T11:10:38;5.47;;;2.63;;
59474;SDS011;45288;51.136;16.928;2022-07-29T11:13:04;6.43;;;2.85;;
59474;SDS011;45288;51.136;16.928;2022-07-29T11:15:29;4.45;;;2.72;;
59474;SDS011;45288;51.136;16.928;2022-07-29T11:18:15;3.97;;;2.83;;
59474;SDS011;45288;51.136;16.928;2022-07-29T11:31:13;4.32;;;2.90;;
59474;SDS011;45288;51.136;16.928;2022-07-29T11:33:40;4.55;;;2.72;;
59474;SDS011;45288;51.136;16.928;2022-07-29T11:36:14;3.22;;;2.90;;
59474;SDS011;45288;51.136;16.928;2022-07-29T11:38:40;5.90;;;2.80;;
59474;SDS011;45288;51.136;16.928;2022-07-29T11:43:47;4.87;;;3.00;;
59474;SDS011;45288;51.136;16.928;2022-07-29T11:46:14;4.25;;;2.88;;
59474;SDS011;45288;51.136;16.928;2022-07-29T11:48:43;4.43;;;2.88;;
59474;SDS011;45288;51.136;16.928;2022-07-29T11:51:09;5.70;;;3.13;;
59474;SDS011;45288;51.136;16.928;2022-07-29T11:53:36;3.65;;;2.95;;
59474;SDS011;45288;51.136;16.928;2022-07-29T11:56:01;4.53;;;3.00;;
59474;SDS011;45288;51.136;16.928;2022-07-29T11:58:29;4.70;;;2.93;;
59474;SDS011;45288;51.136;16.928;2022-07-29T12:00:55;4.93;;;2.88;;
59474;SDS011;45288;51.136;16.928;2022-07-29T12:03:25;5.43;;;3.13;;
59474;SDS011;45288;51.136;16.928;2022-07-29T12:05:51;4.70;;;3.10;;
59474;SDS011;45288;51.136;16.928;2022-07-29T12:08:18;4.28;;;3.00;;
59474;SDS011;45288;51.136;16.928;2022-07-29T12:10:46;4.32;;;3.20;;
59474;SDS011;45288;51.136;16.928;2022-07-29T12:13:12;3.33;;;2.80;;
59474;SDS011;45288;51.136;16.928;2022-07-29T12:15:38;3.80;;;2.90;;
59474;SDS011;45288;51.136;16.928;2022-07-29T12:18:11;5.00;;;3.00;;
59474;SDS011;45288;51.136;16.928;2022-07-29T12:20:37;5.45;;;3.10;;
59474;SDS011;45288;51.136;16.928;2022-07-29T12:23:06;4.80;;;3.20;;
59474;SDS011;45288;51.136;16.928;2022-07-29T12:25:34;4.50;;;2.97;;
59474;SDS011;45288;51.136;16.928;2022-07-29T12:28:01;4.32;;;2.85;;
59474;SDS011;45288;51.136;16.928;2022-07-29T12:30:38;5.55;;;3.17;;
59474;SDS011;45288;51.136;16.928;2022-07-29T12:35:45;5.07;;;3.00;;
59474;SDS011;45288;51.136;16.928;2022-07-29T12:38:11;4.13;;;3.13;;
59474;SDS011;45288;51.136;16.928;2022-07-29T12:40:38;5.18;;;3.17;;
59474;SDS011;45288;51.136;16.928;2022-07-29T12:45:33;4.68;;;3.15;;
59474;SDS011;45288;51.136;16.928;2022-07-29T12:47:58;4.63;;;3.38;;
59474;SDS011;45288;51.136;16.928;2022-07-29T12:50:24;6.00;;;3.60;;
59474;SDS011;45288;51.136;16.928;2022-07-29T12:52:51;6.93;;;3.33;;
59474;SDS011;45288;51.136;16.928;2022-07-29T12:55:37;4.50;;;3.00;;
59474;SDS011;45288;51.136;16.928;2022-07-29T12:58:02;5.22;;;2.80;;
59474;SDS011;45288;51.136;16.928;2022-07-29T13:00:28;4.03;;;2.90;;
59474;SDS011;45288;51.136;16.928;2022-07-29T13:02:54;5.27;;;2.90;;
59474;SDS011;45288;51.136;16.928;2022-07-29T13:05:20;8.30;;;3.42;;
59474;SDS011;45288;51.136;16.928;2022-07-29T13:07:46;4.63;;;3.08;;
59474;SDS011;45288;51.136;16.928;2022-07-29T13:10:15;4.25;;;3.00;;
59474;SDS011;45288;51.136;16.928;2022-07-29T13:15:26;4.28;;;2.80;;
59474;SDS011;45288;51.136;16.928;2022-07-29T13:17:51;4.65;;;3.30;;
59474;SDS011;45288;51.136;16.928;2022-07-29T13:20:17;4.72;;;3.10;;
59474;SDS011;45288;51.136;16.928;2022-07-29T13:22:46;5.38;;;3.22;;
59474;SDS011;45288;51.136;16.928;2022-07-29T13:25:12;7.63;;;3.15;;
59474;SDS011;45288;51.136;16.928;2022-07-29T13:27:38;5.47;;;3.20;;
59474;SDS011;45288;51.136;16.928;2022-07-29T13:30:08;5.07;;;3.20;;
59474;SDS011;45288;51.136;16.928;2022-07-29T13:32:35;5.28;;;3.30;;
59474;SDS011;45288;51.136;16.928;2022-07-29T13:35:03;4.30;;;3.40;;
59474;SDS011;45288;51.136;16.928;2022-07-29T13:37:29;4.43;;;2.92;;
59474;SDS011;45288;51.136;16.928;2022-07-29T13:39:56;6.00;;;3.20;;
59474;SDS011;45288;51.136;16.928;2022-07-29T13:42:22;3.80;;;3.30;;
59474;SDS011;45288;51.136;16.928;2022-07-29T13:44:48;6.22;;;3.58;;
59474;SDS011;45288;51.136;16.928;2022-07-29T13:47:16;4.88;;;3.20;;
59474;SDS011;45288;51.136;16.928;2022-07-29T13:49:42;5.70;;;3.57;;
59474;SDS011;45288;51.136;16.928;2022-07-29T13:52:07;6.50;;;3.50;;
59474;SDS011;45288;51.136;16.928;2022-07-29T13:54:33;4.85;;;3.20;;
59474;SDS011;45288;51.136;16.928;2022-07-29T13:57:03;5.15;;;3.03;;
59474;SDS011;45288;51.136;16.928;2022-07-29T13:59:29;5.47;;;3.40;;
59474;SDS011;45288;51.136;16.928;2022-07-29T14:01:54;4.32;;;3.30;;
59474;SDS011;45288;51.136;16.928;2022-07-29T14:04:20;3.73;;;2.90;;
59474;SDS011;45288;51.136;16.928;2022-07-29T14:06:48;5.93;;;3.37;;
59474;SDS011;45288;51.136;16.928;2022-07-29T14:09:14;5.15;;;3.53;;
59474;SDS011;45288;51.136;16.928;2022-07-29T14:11:40;6.70;;;3.15;;
59474;SDS011;45288;51.136;16.928;2022-07-29T14:14:05;6.13;;;3.25;;
59474;SDS011;45288;51.136;16.928;2022-07-29T14:16:32;6.03;;;3.47;;
59474;SDS011;45288;51.136;16.928;2022-07-29T14:18:59;5.05;;;3.30;;
59474;SDS011;45288;51.136;16.928;2022-07-29T14:21:25;4.63;;;3.42;;
59474;SDS011;45288;51.136;16.928;2022-07-29T14:23:50;3.97;;;3.30;;
59474;SDS011;45288;51.136;16.928;2022-07-29T14:26:17;5.03;;;3.40;;
59474;SDS011;45288;51.136;16.928;2022-07-29T14:28:43;4.70;;;3.40;;
59474;SDS011;45288;51.136;16.928;2022-07-29T14:31:09;5.20;;;3.55;;
59474;SDS011;45288;51.136;16.928;2022-07-29T14:33:35;4.82;;;3.33;;
59474;SDS011;45288;51.136;16.928;2022-07-29T14:36:01;6.53;;;3.70;;
59474;SDS011;45288;51.136;16.928;2022-07-29T14:38:27;3.83;;;3.42;;
59474;SDS011;45288;51.136;16.928;2022-07-29T14:40:52;5.03;;;3.50;;
59474;SDS011;45288;51.136;16.928;2022-07-29T14:43:18;5.30;;;3.57;;
59474;SDS011;45288;51.136;16.928;2022-07-29T14:45:43;9.20;;;3.57;;
59474;SDS011;45288;51.136;16.928;2022-07-29T14:48:09;4.32;;;3.40;;
59474;SDS011;45288;51.136;16.928;2022-07-29T14:50:37;5.30;;;3.67;;
59474;SDS011;45288;51.136;16.928;2022-07-29T14:53:03;6.43;;;3.55;;
59474;SDS011;45288;51.136;16.928;2022-07-29T14:55:28;6.70;;;3.90;;
59474;SDS011;45288;51.136;16.928;2022-07-29T14:57:54;5.68;;;3.80;;
59474;SDS011;45288;51.136;16.928;2022-07-29T15:00:20;4.10;;;3.20;;
59474;SDS011;45288;51.136;16.928;2022-07-29T15:02:46;4.90;;;3.20;;
59474;SDS011;45288;51.136;16.928;2022-07-29T15:05:15;8.77;;;3.60;;
59474;SDS011;45288;51.136;16.928;2022-07-29T15:07:40;4.38;;;3.35;;
59474;SDS011;45288;51.136;16.928;2022-07-29T15:10:06;5.28;;;3.28;;
59474;SDS011;45288;51.136;16.928;2022-07-29T15:12:32;4.23;;;3.23;;
59474;SDS011;45288;51.136;16.928;2022-07-29T15:14:58;5.85;;;3.40;;
59474;SDS011;45288;51.136;16.928;2022-07-29T15:17:24;4.57;;;3.50;;
59474;SDS011;45288;51.136;16.928;2022-07-29T15:19:51;4.80;;;3.35;;
59474;SDS011;45288;51.136;16.928;2022-07-29T15:22:17;6.55;;;3.70;;
59474;SDS011;45288;51.136;16.928;2022-07-29T15:24:43;6.27;;;3.40;;